Allerton, Illinois
Current Conditions -  °F | °C
As of 8:53 PM on Sunday 21 Dec 2014 (Local Time) from KCMI Reporting Station
Haze Haze  
Wind Chill: 22°   Ceiling: Unl
Heat Index: 31°   Visibility: 6mi
Dew Point: 28°   Wind: 10mph
Humidity: 89%   Direction: 120°ESE
Pressure: 30.04"   Gusts: NA
Location:  39.91°N, 87.94°W
Report Text: KCMI 220253Z 12009KT 6SM BR CLR M01/M02 A3004 RMK AO2 SLP180 T10061022 58013
Loading
Personal Weather Stations






























Interactive Weather Map New forecast layout! Learn more

10-Day Weather Forecast

Advertisements
Track Severe Weather on mobile